createdAt,value
2023-04-19T00:01:50.653Z,101158.03
2023-04-19T00:04:40.686Z,101147.72
2023-04-19T00:07:30.626Z,101146.50
2023-04-19T00:10:19.451Z,101138.31
2023-04-19T00:13:08.517Z,101140.59
2023-04-19T00:15:57.124Z,101144.28
2023-04-19T00:18:46.775Z,101137.75
2023-04-19T00:21:36.777Z,101140.13
2023-04-19T00:24:25.710Z,101134.91
2023-04-19T00:27:14.271Z,101128.00
2023-04-19T00:30:03.318Z,101123.28
2023-04-19T00:32:52.042Z,101136.31
2023-04-19T00:35:41.959Z,101123.31
2023-04-19T00:38:31.942Z,101129.31
2023-04-19T00:41:20.586Z,101128.13
2023-04-19T00:44:09.195Z,101124.34
2023-04-19T00:46:58.839Z,101127.38
2023-04-19T00:49:48.295Z,101128.53
2023-04-19T00:52:37.333Z,101123.50
2023-04-19T00:55:27.508Z,101110.69
2023-04-19T00:58:16.462Z,101112.38
2023-04-19T01:01:06.434Z,101111.25
2023-04-19T01:03:55.419Z,101110.34
2023-04-19T01:06:44.235Z,101114.66
2023-04-19T01:09:32.893Z,101113.00
2023-04-19T01:12:23.128Z,101107.72
2023-04-19T01:15:12.453Z,101110.22
2023-04-19T01:18:02.115Z,101101.56
2023-04-19T01:20:50.882Z,101103.44
2023-04-19T01:23:40.835Z,101105.47
2023-04-19T01:26:29.542Z,101106.31
2023-04-19T01:29:18.798Z,101110.34
2023-04-19T01:32:07.955Z,101102.53
2023-04-19T01:34:56.698Z,101102.34
2023-04-19T01:37:45.320Z,101107.03
2023-04-19T01:40:35.439Z,101099.66
2023-04-19T01:43:24.132Z,101102.81
2023-04-19T01:46:12.798Z,101106.50
2023-04-19T01:49:01.410Z,101097.84
2023-04-19T01:51:50.051Z,101099.50
2023-04-19T01:54:38.741Z,101093.50
2023-04-19T01:57:28.791Z,101096.81
2023-04-19T02:00:18.450Z,101099.06
2023-04-19T02:03:07.261Z,101093.72
2023-04-19T02:05:55.945Z,101082.22
2023-04-19T02:08:44.816Z,101077.59
2023-04-19T02:11:33.393Z,101075.75
2023-04-19T02:14:23.376Z,101085.19
2023-04-19T02:17:12.285Z,101083.44
2023-04-19T02:20:00.871Z,101088.66
2023-04-19T02:22:49.542Z,101084.13
2023-04-19T02:25:38.159Z,101083.47
2023-04-19T02:28:26.895Z,101082.19
2023-04-19T02:31:16.895Z,101074.19
2023-04-19T02:34:05.567Z,101080.88
2023-04-19T02:36:54.110Z,101078.19
2023-04-19T02:39:42.886Z,101070.84
2023-04-19T02:42:31.501Z,101066.72
2023-04-19T02:45:20.168Z,101071.50
2023-04-19T02:48:10.282Z,101069.84
2023-04-19T02:50:59.052Z,101071.44
2023-04-19T02:53:47.705Z,101070.63
2023-04-19T02:56:36.274Z,101070.72
2023-04-19T02:59:24.907Z,101065.59
2023-04-19T03:02:13.526Z,101066.66
2023-04-19T03:05:04.070Z,101062.19
2023-04-19T03:07:52.740Z,101061.06
2023-04-19T03:10:41.439Z,101059.69
2023-04-19T03:13:30.077Z,101059.69
2023-04-19T03:16:18.985Z,101047.25
2023-04-19T03:19:07.782Z,101054.72
2023-04-19T03:21:57.771Z,101048.63
2023-04-19T03:24:46.542Z,101047.34
2023-04-19T03:27:36.794Z,101044.03
2023-04-19T03:30:25.499Z,101029.66
2023-04-19T03:33:14.388Z,101034.06
2023-04-19T03:36:03.326Z,101030.75
2023-04-19T03:38:53.384Z,101022.47
2023-04-19T03:41:42.213Z,101021.72
2023-04-19T03:44:33.855Z,101029.72
2023-04-19T03:47:22.444Z,101022.81
2023-04-19T03:50:11.843Z,101016.19
2023-04-19T03:53:00.519Z,101013.34
2023-04-19T03:55:50.572Z,101012.50
2023-04-19T03:58:41.003Z,101012.13
2023-04-19T04:01:30.840Z,101018.31
2023-04-19T04:04:19.816Z,101026.16
2023-04-19T04:07:08.698Z,101025.78
2023-04-19T04:09:57.307Z,101016.59
2023-04-19T04:12:47.508Z,101021.09
2023-04-19T04:15:36.134Z,101020.91
2023-04-19T04:18:27.137Z,101037.84
2023-04-19T04:21:15.815Z,101024.81
2023-04-19T04:24:04.522Z,101030.47
2023-04-19T04:26:53.279Z,101039.16
2023-04-19T04:29:43.946Z,101032.16
2023-04-19T04:32:36.256Z,101034.38
2023-04-19T04:35:25.142Z,101028.69
2023-04-19T04:38:23.973Z,101030.84
2023-04-19T04:41:13.784Z,101020.25
2023-04-19T04:44:12.511Z,101025.50
2023-04-19T04:47:03.183Z,101028.72
2023-04-19T04:49:52.864Z,101030.94
2023-04-19T04:52:41.581Z,101024.03
2023-04-19T04:55:30.345Z,101025.78
2023-04-19T04:58:20.478Z,101026.66
2023-04-19T05:01:09.280Z,101019.66
2023-04-19T05:03:59.404Z,101017.63
2023-04-19T05:06:48.082Z,101018.44
2023-04-19T05:09:36.685Z,101021.88
2023-04-19T05:12:25.365Z,101014.56
2023-04-19T05:15:13.975Z,101026.19
2023-04-19T05:18:02.624Z,101024.06
2023-04-19T05:20:52.781Z,101027.81
2023-04-19T05:23:44.226Z,101030.59
2023-04-19T05:26:33.061Z,101032.63
2023-04-19T05:29:21.665Z,101032.97
2023-04-19T05:32:10.262Z,101036.47
2023-04-19T05:34:59.019Z,101031.13
2023-04-19T05:37:49.096Z,101024.78
2023-04-19T05:40:37.828Z,101021.16
2023-04-19T05:43:26.687Z,101025.31
2023-04-19T05:46:15.420Z,101018.19
2023-04-19T05:49:04.484Z,101025.19
2023-04-19T05:51:54.308Z,101023.53
2023-04-19T05:54:45.022Z,101021.25
2023-04-19T05:57:33.738Z,101028.72
2023-04-19T06:00:22.919Z,101026.25
2023-04-19T06:03:12.117Z,101023.38
2023-04-19T06:06:01.109Z,101028.72
2023-04-19T06:08:49.847Z,101024.34
2023-04-19T06:11:49.874Z,101030.63
2023-04-19T06:14:39.676Z,101034.16
2023-04-19T06:17:28.415Z,101032.56
2023-04-19T06:20:17.403Z,101025.72
2023-04-19T06:23:06.289Z,101022.16
2023-04-19T06:25:54.958Z,101018.41
2023-04-19T06:28:46.380Z,101010.69
2023-04-19T06:31:35.234Z,101011.63
2023-04-19T06:34:27.437Z,101020.00
2023-04-19T06:37:16.125Z,101028.13
2023-04-19T06:40:08.834Z,101021.59
2023-04-19T06:42:57.678Z,101036.50
2023-04-19T06:45:50.632Z,101025.81
2023-04-19T06:48:40.132Z,101027.25
2023-04-19T06:51:29.317Z,101018.13
2023-04-19T06:54:18.474Z,101022.81
2023-04-19T06:57:07.375Z,101020.34
2023-04-19T06:59:58.097Z,101008.16
2023-04-19T07:02:48.326Z,101004.72
2023-04-19T07:05:38.090Z,100993.09
2023-04-19T07:08:49.717Z,100985.66
2023-04-19T07:11:39.580Z,100989.59
2023-04-19T07:14:28.227Z,100986.75
2023-04-19T07:17:18.242Z,100989.19
2023-04-19T07:20:10.020Z,100986.22
2023-04-19T07:22:58.718Z,100980.78
2023-04-19T07:25:47.570Z,100968.91
2023-04-19T07:28:36.484Z,100976.94
2023-04-19T07:31:25.807Z,100982.81
2023-04-19T07:34:14.777Z,100975.34
2023-04-19T07:37:04.887Z,100966.69
2023-04-19T07:39:53.531Z,100976.34
2023-04-19T07:42:42.186Z,100965.41
2023-04-19T07:45:31.935Z,100967.88
2023-04-19T07:48:20.717Z,100964.56
2023-04-19T07:51:12.834Z,100970.38
2023-04-19T07:54:03.766Z,100966.69
2023-04-19T07:56:52.409Z,100965.31
2023-04-19T07:59:41.371Z,100966.69
2023-04-19T08:02:30.175Z,100966.31
2023-04-19T08:05:20.084Z,100959.69
2023-04-19T08:08:08.921Z,100947.63
2023-04-19T08:11:00.174Z,100953.91
2023-04-19T08:14:02.670Z,100949.97
2023-04-19T08:19:50.039Z,100952.91
2023-04-19T08:22:39.439Z,100942.78
2023-04-19T08:25:29.831Z,100943.06
2023-04-19T08:28:20.138Z,100929.53
2023-04-19T08:31:09.007Z,100945.84
2023-04-19T08:33:58.519Z,100941.50
2023-04-19T08:36:56.215Z,100937.81
2023-04-19T08:39:49.376Z,100943.25
2023-04-19T08:42:38.157Z,100936.69
2023-04-19T08:45:29.664Z,100931.56
2023-04-19T08:48:19.675Z,100933.38
2023-04-19T08:51:09.487Z,100936.38
2023-04-19T08:53:58.419Z,100925.59
2023-04-19T08:56:47.115Z,100922.09
2023-04-19T08:59:36.421Z,100923.66
2023-04-19T09:02:26.572Z,100919.59
2023-04-19T09:05:16.348Z,100908.75
2023-04-19T09:08:24.990Z,100910.47
2023-04-19T09:11:13.695Z,100905.78
2023-04-19T09:14:10.070Z,100900.44
2023-04-19T09:17:15.729Z,100896.38
2023-04-19T09:20:07.286Z,100896.00
2023-04-19T09:23:06.095Z,100890.84
2023-04-19T09:26:19.433Z,100885.69
2023-04-19T09:29:07.364Z,100887.09
2023-04-19T09:32:00.261Z,100881.09
2023-04-19T09:34:54.148Z,100884.03
2023-04-19T09:40:35.998Z,100872.78
2023-04-19T09:43:53.251Z,100870.13
2023-04-19T09:46:36.645Z,100869.16
2023-04-19T09:49:41.668Z,100859.03
2023-04-19T09:52:35.851Z,100864.38
2023-04-19T09:55:28.821Z,100854.16
2023-04-19T09:58:20.282Z,100842.66
2023-04-19T10:01:15.818Z,100846.78
2023-04-19T10:04:23.851Z,100852.13
2023-04-19T10:10:19.590Z,100845.97
2023-04-19T10:16:18.218Z,100841.66
2023-04-19T10:19:11.942Z,100832.44
2023-04-19T10:22:01.047Z,100836.47
2023-04-19T10:25:12.825Z,100826.56
2023-04-19T10:28:01.493Z,100823.63
2023-04-19T10:31:02.571Z,100832.72
2023-04-19T10:33:52.552Z,100830.59
2023-04-19T10:36:41.454Z,100825.91
2023-04-19T10:39:44.219Z,100828.31
2023-04-19T10:43:10.109Z,100815.34
2023-04-19T10:46:03.724Z,100818.66
2023-04-19T10:48:57.249Z,100827.31
2023-04-19T10:51:52.724Z,100807.97
2023-04-19T10:54:41.336Z,100818.03
2023-04-19T10:57:30.676Z,100813.06
2023-04-19T11:00:21.390Z,100817.75
2023-04-19T11:03:54.616Z,100803.84
2023-04-19T11:07:01.374Z,100811.66
2023-04-19T11:09:52.469Z,100804.91
2023-04-19T11:12:44.944Z,100804.34
2023-04-19T11:15:33.540Z,100802.25
2023-04-19T11:18:22.177Z,100798.41
2023-04-19T11:21:16.244Z,100789.38
2023-04-19T11:24:09.109Z,100786.09
2023-04-19T11:26:58.806Z,100783.16
2023-04-19T11:29:47.442Z,100780.19
2023-04-19T11:32:36.530Z,100776.25
2023-04-19T11:35:27.292Z,100771.94
2023-04-19T11:38:17.275Z,100775.63
2023-04-19T11:41:06.421Z,100769.88
2023-04-19T11:43:55.274Z,100773.97
2023-04-19T11:46:44.235Z,100773.56
2023-04-19T11:49:34.147Z,100769.63
2023-04-19T11:52:24.769Z,100780.50
2023-04-19T11:55:21.788Z,100770.38
2023-04-19T11:58:10.574Z,100776.72
2023-04-19T12:01:04.127Z,100776.72
2023-04-19T12:03:54.414Z,100766.06
2023-04-19T12:06:43.553Z,100763.56
2023-04-19T12:09:34.383Z,100768.72
2023-04-19T12:12:36.491Z,100771.22
2023-04-19T12:15:26.979Z,100769.34
2023-04-19T12:18:16.917Z,100761.97
2023-04-19T12:21:06.543Z,100759.97
2023-04-19T12:23:56.760Z,100757.09
2023-04-19T12:28:14.600Z,100757.94
2023-04-19T12:30:07.097Z,100757.56
2023-04-19T12:32:56.572Z,100746.88
2023-04-19T12:35:45.919Z,100752.22
2023-04-19T12:38:34.528Z,100749.56
2023-04-19T12:41:23.133Z,100746.50
2023-04-19T12:44:11.951Z,100732.50
2023-04-19T12:47:02.179Z,100736.13
2023-04-19T12:49:53.567Z,100740.06
2023-04-19T12:52:42.317Z,100730.09
2023-04-19T12:55:30.919Z,100725.78
2023-04-19T12:58:21.211Z,100726.63
2023-04-19T13:01:10.107Z,100728.13
2023-04-19T13:04:00.379Z,100721.94
2023-04-19T13:06:49.208Z,100721.13
2023-04-19T13:09:37.842Z,100723.09
2023-04-19T13:12:26.565Z,100712.41
2023-04-19T13:15:15.471Z,100711.16
2023-04-19T13:18:04.159Z,100689.41
2023-04-19T13:20:54.972Z,100690.53
2023-04-19T13:23:45.796Z,100681.44
2023-04-19T13:26:35.095Z,100673.66
2023-04-19T13:29:23.735Z,100679.00
2023-04-19T13:32:13.310Z,100670.00
2023-04-19T13:35:01.940Z,100667.13
2023-04-19T13:37:52.069Z,100665.06
2023-04-19T13:40:40.729Z,100662.63
2023-04-19T13:43:29.332Z,100660.56
2023-04-19T13:46:18.056Z,100658.47
2023-04-19T13:49:06.787Z,100651.03
2023-04-19T13:51:55.411Z,100653.31
2023-04-19T13:54:45.424Z,100658.03
2023-04-19T13:57:34.079Z,100660.84
2023-04-19T14:00:23.276Z,100687.56
2023-04-19T14:03:12.154Z,100687.84
2023-04-19T14:06:00.782Z,100678.50
2023-04-19T14:08:51.294Z,100681.03
2023-04-19T14:11:41.458Z,100682.47
2023-04-19T14:14:31.995Z,100690.28
2023-04-19T14:17:21.169Z,100697.63
2023-04-19T14:20:11.036Z,100696.13
2023-04-19T14:23:00.297Z,100699.91
2023-04-19T14:25:49.034Z,100699.91
2023-04-19T14:28:39.081Z,100708.00
2023-04-19T14:31:27.904Z,100702.22
2023-04-19T14:34:16.520Z,100703.94
2023-04-19T14:37:05.182Z,100701.38
2023-04-19T14:39:54.266Z,100699.53
2023-04-19T14:42:42.886Z,100703.84
2023-04-19T14:45:32.934Z,100702.66
2023-04-19T14:48:22.398Z,100706.88
2023-04-19T14:51:11.185Z,100704.88
2023-04-19T14:54:00.257Z,100706.16
2023-04-19T14:56:49.072Z,100710.72
2023-04-19T14:59:37.719Z,100718.09
2023-04-19T15:02:28.326Z,100725.38
2023-04-19T15:05:17.521Z,100731.34
2023-04-19T15:08:12.459Z,100721.97
2023-04-19T15:11:06.277Z,100728.97
2023-04-19T15:13:54.882Z,100721.03
2023-04-19T15:16:43.538Z,100739.72
2023-04-19T15:19:33.844Z,100726.94
2023-04-19T15:22:22.426Z,100731.25
2023-04-19T15:25:11.924Z,100731.63
2023-04-19T15:28:00.548Z,100729.84
2023-04-19T15:30:58.384Z,100738.16
2023-04-19T15:33:47.527Z,100737.78
2023-04-19T15:36:37.597Z,100731.88
2023-04-19T15:39:26.454Z,100731.88
2023-04-19T15:42:15.288Z,100725.66
2023-04-19T15:45:04.067Z,100726.00
2023-04-19T15:47:52.808Z,100721.03
2023-04-19T15:50:44.126Z,100733.56
2023-04-19T15:53:34.244Z,100728.66
2023-04-19T15:56:23.139Z,100738.69
2023-04-19T15:59:11.778Z,100736.31
2023-04-19T16:02:00.572Z,100722.88
2023-04-19T16:04:49.598Z,100724.19
2023-04-19T16:07:38.372Z,100730.41
2023-04-19T16:10:28.464Z,100727.00
2023-04-19T16:13:17.831Z,100731.16
2023-04-19T16:16:06.934Z,100719.50
2023-04-19T16:18:55.930Z,100721.97
2023-04-19T16:21:44.527Z,100717.09
2023-04-19T16:24:34.224Z,100705.50
2023-04-19T16:27:24.244Z,100708.91
2023-04-19T16:30:16.436Z,100708.34
2023-04-19T16:33:05.201Z,100701.63
2023-04-19T16:35:53.827Z,100706.94
2023-04-19T16:38:42.371Z,100700.66
2023-04-19T16:41:31.434Z,100701.75
2023-04-19T16:44:21.453Z,100701.19
2023-04-19T16:47:10.049Z,100689.16
2023-04-19T16:49:59.208Z,100689.78
2023-04-19T16:52:47.812Z,100690.03
2023-04-19T16:55:36.430Z,100695.75
2023-04-19T16:58:25.019Z,100692.44
2023-04-19T17:01:15.382Z,100689.53
2023-04-19T17:04:04.213Z,100692.84
2023-04-19T17:06:52.885Z,100694.09
2023-04-19T17:09:41.747Z,100692.28
2023-04-19T17:12:30.401Z,100687.94
2023-04-19T17:15:21.031Z,100683.41
2023-04-19T17:18:11.106Z,100681.13
2023-04-19T17:21:00.467Z,100679.38
2023-04-19T17:23:49.127Z,100676.81
2023-04-19T17:26:37.728Z,100675.41
2023-04-19T17:29:26.508Z,100673.91
2023-04-19T17:32:15.156Z,100675.16
2023-04-19T17:35:05.335Z,100684.19
2023-04-19T17:37:54.125Z,100681.09
2023-04-19T17:40:42.727Z,100671.09
2023-04-19T17:43:31.385Z,100677.41
2023-04-19T17:46:20.949Z,100672.59
2023-04-19T17:49:10.562Z,100678.97
2023-04-19T17:52:00.605Z,100680.81
2023-04-19T17:54:49.922Z,100684.94
2023-04-19T17:57:38.650Z,100682.09
2023-04-19T18:00:27.608Z,100689.53
2023-04-19T18:03:26.802Z,100684.56
2023-04-19T18:06:16.374Z,100685.84
2023-04-19T18:09:07.597Z,100683.06
2023-04-19T18:11:56.453Z,100690.00
2023-04-19T18:14:45.042Z,100685.59
2023-04-19T18:17:33.788Z,100687.53
2023-04-19T18:20:22.763Z,100690.69
2023-04-19T18:23:11.429Z,100681.63
2023-04-19T18:26:04.469Z,100688.94
2023-04-19T18:28:53.078Z,100682.06
2023-04-19T18:31:41.849Z,100677.75
2023-04-19T18:34:32.717Z,100675.47
2023-04-19T18:37:21.418Z,100675.69
2023-04-19T18:40:10.992Z,100677.13
2023-04-19T18:43:01.046Z,100680.41
2023-04-19T18:45:55.813Z,100681.03
2023-04-19T18:48:44.507Z,100680.19
2023-04-19T18:51:33.137Z,100680.97
2023-04-19T18:54:21.759Z,100683.72
2023-04-19T19:00:05.472Z,100679.38
2023-04-19T19:02:54.455Z,100684.34
2023-04-19T19:05:43.322Z,100681.94
2023-04-19T19:08:32.253Z,100683.41
2023-04-19T19:11:47.228Z,100690.06
2023-04-19T19:14:29.886Z,100687.28
2023-04-19T19:17:20.028Z,100674.56
2023-04-19T19:20:10.605Z,100680.34
2023-04-19T19:22:59.642Z,100678.88
2023-04-19T19:25:51.365Z,100673.66
2023-04-19T19:28:40.284Z,100668.81
2023-04-19T19:31:28.920Z,100674.25
2023-04-19T19:34:28.892Z,100678.53
2023-04-19T19:37:19.013Z,100674.06
2023-04-19T19:40:11.310Z,100677.94
2023-04-19T19:43:00.129Z,100680.41
2023-04-19T19:45:48.797Z,100675.91
2023-04-19T19:48:41.967Z,100674.56
2023-04-19T19:51:53.116Z,100674.94
2023-04-19T19:54:41.297Z,100677.75
2023-04-19T19:58:18.647Z,100668.59
2023-04-19T20:00:46.155Z,100682.97
2023-04-19T20:03:37.940Z,100679.00
2023-04-19T20:07:21.487Z,100681.03
2023-04-19T20:09:37.034Z,100671.66
2023-04-19T20:12:25.695Z,100671.25
2023-04-19T20:15:14.868Z,100677.34
2023-04-19T20:18:03.714Z,100673.41
2023-04-19T20:20:52.484Z,100675.72
2023-04-19T20:23:41.300Z,100674.69
2023-04-19T20:26:31.342Z,100672.69
2023-04-19T20:29:20.037Z,100675.97
2023-04-19T20:32:09.349Z,100679.50
2023-04-19T20:34:58.016Z,100674.16
2023-04-19T20:37:48.938Z,100674.94
2023-04-19T20:40:37.645Z,100680.38
2023-04-19T20:43:27.666Z,100675.53
2023-04-19T20:46:16.768Z,100681.16
2023-04-19T20:49:05.491Z,100676.31
2023-04-19T20:51:54.372Z,100679.19
2023-04-19T20:54:42.968Z,100683.94
2023-04-19T20:57:31.575Z,100677.19
2023-04-19T21:00:21.901Z,100677.78
2023-04-19T21:03:10.647Z,100678.34
2023-04-19T21:05:59.524Z,100678.03
2023-04-19T21:08:48.881Z,100677.19
2023-04-19T21:11:37.506Z,100676.78
2023-04-19T21:14:26.122Z,100672.16
2023-04-19T21:17:16.159Z,100672.91
2023-04-19T21:20:11.828Z,100673.84
2023-04-19T21:23:00.442Z,100673.50
2023-04-19T21:25:49.067Z,100669.63
2023-04-19T21:28:37.894Z,100678.44
2023-04-19T21:31:27.170Z,100673.50
2023-04-19T21:34:17.226Z,100670.19
2023-04-19T21:37:06.184Z,100668.91
2023-04-19T21:39:55.150Z,100666.97
2023-04-19T21:42:43.685Z,100663.88
2023-04-19T21:45:32.266Z,100672.34
2023-04-19T21:48:21.024Z,100664.44
2023-04-19T21:51:11.329Z,100668.81
2023-04-19T21:53:59.935Z,100666.19
2023-04-19T21:56:48.731Z,100665.94
2023-04-19T21:59:37.779Z,100671.34
2023-04-19T22:02:26.659Z,100675.97
2023-04-19T22:05:16.702Z,100673.31
2023-04-19T22:08:07.283Z,100675.81
2023-04-19T22:10:57.505Z,100674.91
2023-04-19T22:13:46.210Z,100670.41
2023-04-19T22:16:35.161Z,100676.97
2023-04-19T22:19:24.886Z,100676.44
2023-04-19T22:22:17.544Z,100673.13
2023-04-19T22:25:25.530Z,100675.16
2023-04-19T22:28:14.207Z,100670.47
2023-04-19T22:31:02.796Z,100672.38
2023-04-19T22:33:51.656Z,100671.66
2023-04-19T22:36:40.385Z,100664.44
2023-04-19T22:39:29.067Z,100673.25
2023-04-19T22:42:19.121Z,100669.94
2023-04-19T22:45:09.198Z,100665.22
2023-04-19T22:47:58.071Z,100667.03
2023-04-19T22:50:47.143Z,100666.00
2023-04-19T22:53:35.845Z,100660.50
2023-04-19T22:56:24.531Z,100661.31
2023-04-19T22:59:14.918Z,100661.69
2023-04-19T23:02:04.070Z,100667.03
2023-04-19T23:04:53.129Z,100667.19
2023-04-19T23:07:42.971Z,100667.19
2023-04-19T23:10:32.815Z,100664.06
2023-04-19T23:13:21.467Z,100666.41
2023-04-19T23:16:12.867Z,100665.63
2023-04-19T23:19:01.748Z,100661.69
2023-04-19T23:21:50.640Z,100661.69
2023-04-19T23:24:39.254Z,100670.44
2023-04-19T23:27:27.833Z,100673.75
2023-04-19T23:30:16.810Z,100667.13
2023-04-19T23:33:07.002Z,100673.47
2023-04-19T23:35:55.755Z,100672.84
2023-04-19T23:38:44.405Z,100667.50
2023-04-19T23:41:33.012Z,100660.16
2023-04-19T23:44:21.757Z,100664.00
2023-04-19T23:47:10.452Z,100669.53
2023-04-19T23:50:00.465Z,100670.91
2023-04-19T23:52:49.104Z,100669.25
2023-04-19T23:55:39.002Z,100667.59
2023-04-19T23:58:27.636Z,100657.56
